Time;durP1;ratioP1;P1;durP2;ratioP2;P2;SDS_P1;SDS_P2;PMS_P1;PMS_P2;Temp;Humidity;BMP_temperature;BMP_pressure;BME280_temperature;BME280_humidity;BME280_pressure;Samples;Min_cycle;Max_cycle;Signal;HPM_P1;HPM_P2
2022/03/08 00:00:08;;;;;;;;;;;3.50;47.10;;;;;;5056458;28;20373;-88
2022/03/08 00:02:33;;;;;;;;;;;3.40;47.20;;;;;;5039078;28;20384;-89
2022/03/08 00:04:58;;;;;;;;;;;3.40;47.40;;;;;;5038533;28;19944;-89
2022/03/08 00:07:24;;;;;;;;;;;3.40;47.30;;;;;;5038192;28;19921;-88
2022/03/08 00:09:49;;;;;;;;;;;3.40;47.30;;;;;;5038289;28;20395;-90
2022/03/08 00:12:15;;;;;;;;;;;3.30;47.40;;;;;;5057205;28;19924;-89
2022/03/08 00:14:40;;;;;;;;;;;3.30;47.80;;;;;;5037441;28;20017;-90
2022/03/08 00:17:06;;;;;;;;;;;3.30;47.80;;;;;;5037917;28;19916;-90
2022/03/08 00:19:32;;;;;;;;;;;3.30;47.90;;;;;;5055994;28;19912;-88
2022/03/08 00:21:57;;;;;;;;;;;3.30;48.20;;;;;;5038005;28;20402;-89
2022/03/08 00:24:23;;;;;;;;;;;3.30;48.20;;;;;;5056726;28;20252;-89
2022/03/08 00:26:48;;;;;;;;;;;3.40;48.20;;;;;;5038643;28;19939;-88
2022/03/08 00:29:14;;;;;;;;;;;3.40;48.10;;;;;;5031533;28;20437;-88
2022/03/08 00:31:39;;;;;;;;;;;3.30;47.90;;;;;;5049448;28;19955;-87
2022/03/08 00:34:05;;;;;;;;;;;3.30;47.90;;;;;;5037157;28;19912;-88
2022/03/08 00:36:31;;;;;;;;;;;3.30;47.90;;;;;;5038599;28;19913;-89
2022/03/08 00:38:56;;;;;;;;;;;3.30;47.80;;;;;;5054409;28;19913;-89
2022/03/08 00:41:22;;;;;;;;;;;3.20;47.90;;;;;;5038147;28;20043;-89
2022/03/08 00:43:49;;;;;;;;;;;3.20;47.90;;;;;;5055558;28;19916;-89
2022/03/08 00:46:15;;;;;;;;;;;3.20;47.80;;;;;;5055940;28;19917;-89
2022/03/08 00:48:41;;;;;;;;;;;3.20;47.80;;;;;;5055162;28;19921;-89
2022/03/08 00:51:07;;;;;;;;;;;3.20;48.10;;;;;;5035972;28;19921;-89
2022/03/08 00:53:33;;;;;;;;;;;3.10;48.30;;;;;;5054806;28;19974;-89
2022/03/08 00:55:58;;;;;;;;;;;3.10;48.40;;;;;;5041394;28;19912;-89
2022/03/08 00:58:24;;;;;;;;;;;3.10;48.40;;;;;;5056444;28;19965;-88
2022/03/08 01:00:49;;;;;;;;;;;3.10;48.30;;;;;;5056438;28;20002;-90
2022/03/08 01:03:15;;;;;;;;;;;3.00;48.80;;;;;;5057032;28;19927;-89
2022/03/08 01:05:41;;;;;;;;;;;3.00;48.50;;;;;;5074716;28;19966;-89
2022/03/08 01:08:06;;;;;;;;;;;3.00;48.40;;;;;;5075579;28;20288;-89
2022/03/08 01:10:33;;;;;;;;;;;3.00;48.30;;;;;;5056806;28;19908;-88
2022/03/08 01:12:58;;;;;;;;;;;3.00;48.30;;;;;;5074049;28;19917;-89
2022/03/08 01:15:25;;;;;;;;;;;3.00;48.30;;;;;;5074299;28;20417;-89
2022/03/08 01:17:51;;;;;;;;;;;3.00;48.30;;;;;;5074557;28;20332;-89
2022/03/08 01:20:16;;;;;;;;;;;2.90;48.40;;;;;;5056703;28;20339;-88
2022/03/08 01:22:42;;;;;;;;;;;2.90;48.40;;;;;;5056600;28;19921;-89
2022/03/08 01:25:09;;;;;;;;;;;2.90;48.30;;;;;;5057122;28;19916;-89
2022/03/08 01:27:34;;;;;;;;;;;2.90;48.30;;;;;;5074121;28;19929;-89
2022/03/08 01:30:00;;;;;;;;;;;2.80;48.40;;;;;;5056067;28;20436;-90
2022/03/08 01:32:26;;;;;;;;;;;2.90;48.50;;;;;;5074816;28;20065;-87
2022/03/08 01:34:51;;;;;;;;;;;2.90;48.50;;;;;;5074887;28;19913;-89
2022/03/08 01:37:17;;;;;;;;;;;2.90;48.50;;;;;;5056974;28;20345;-89
2022/03/08 01:39:42;;;;;;;;;;;2.80;48.60;;;;;;5056703;28;19909;-90
2022/03/08 01:42:09;;;;;;;;;;;2.80;48.60;;;;;;5056222;28;19916;-87
2022/03/08 01:44:34;;;;;;;;;;;2.90;48.80;;;;;;5046093;28;19923;-90
2022/03/08 01:47:00;;;;;;;;;;;2.90;49.30;;;;;;5035981;28;20324;-89
2022/03/08 01:49:28;;;;;;;;;;;2.90;49.70;;;;;;5044368;28;19912;-89
2022/03/08 01:51:54;;;;;;;;;;;2.90;50.20;;;;;;5078797;28;20278;-88
2022/03/08 01:54:19;;;;;;;;;;;2.90;49.90;;;;;;5060823;28;19978;-90
2022/03/08 01:56:45;;;;;;;;;;;2.90;50.00;;;;;;5058983;28;19920;-88
2022/03/08 01:59:10;;;;;;;;;;;2.90;50.00;;;;;;5060099;28;19920;-89
2022/03/08 02:01:36;;;;;;;;;;;2.90;50.50;;;;;;5047380;28;19971;-90
2022/03/08 02:04:01;;;;;;;;;;;2.90;50.70;;;;;;5063060;28;19966;-89
2022/03/08 02:06:28;;;;;;;;;;;3.00;50.40;;;;;;5059637;28;19939;-89
2022/03/08 02:08:53;;;;;;;;;;;3.00;50.00;;;;;;5078056;28;20011;-88
2022/03/08 02:11:19;;;;;;;;;;;3.00;49.80;;;;;;5060701;28;19959;-89
2022/03/08 02:13:45;;;;;;;;;;;3.00;49.70;;;;;;5055315;28;19917;-89
2022/03/08 02:16:11;;;;;;;;;;;3.00;49.50;;;;;;5076667;28;19947;-87
2022/03/08 02:18:36;;;;;;;;;;;3.00;49.60;;;;;;5080563;28;19917;-89
2022/03/08 02:21:05;;;;;;;;;;;3.00;49.90;;;;;;5061827;28;19934;-88
2022/03/08 02:23:30;;;;;;;;;;;3.00;49.70;;;;;;5062604;28;19909;-89
2022/03/08 02:25:56;;;;;;;;;;;3.00;49.70;;;;;;5060641;28;19931;-90
2022/03/08 02:28:21;;;;;;;;;;;3.00;49.70;;;;;;5078708;28;20626;-89
2022/03/08 02:30:47;;;;;;;;;;;3.00;49.60;;;;;;5061424;28;19916;-90
2022/03/08 02:33:12;;;;;;;;;;;3.00;49.50;;;;;;5061279;28;20007;-89
2022/03/08 02:35:38;;;;;;;;;;;3.00;49.40;;;;;;5081376;28;19917;-89
2022/03/08 02:38:05;;;;;;;;;;;3.00;49.30;;;;;;5059734;28;19971;-88
2022/03/08 02:40:38;;;;;;;;;;;2.90;49.30;;;;;;5058778;28;20004;-89
2022/03/08 02:43:08;;;;;;;;;;;2.90;49.20;;;;;;5058595;28;19952;-88
2022/03/08 02:45:34;;;;;;;;;;;2.80;49.20;;;;;;5041589;28;21842;-90
2022/03/08 02:47:59;;;;;;;;;;;2.80;49.20;;;;;;5058899;28;19996;-89
2022/03/08 02:50:25;;;;;;;;;;;2.80;49.20;;;;;;5071416;28;19927;-89
2022/03/08 02:52:51;;;;;;;;;;;2.80;49.20;;;;;;5058446;28;19921;-89
2022/03/08 02:55:18;;;;;;;;;;;2.80;49.10;;;;;;5058325;28;19920;-88
2022/03/08 02:57:43;;;;;;;;;;;2.70;49.10;;;;;;5041914;28;19970;-89
2022/03/08 03:00:10;;;;;;;;;;;2.70;49.20;;;;;;5057873;28;20011;-89
2022/03/08 03:02:36;;;;;;;;;;;2.60;49.10;;;;;;5058484;28;20283;-89
2022/03/08 03:05:01;;;;;;;;;;;2.60;49.30;;;;;;5075758;28;19924;-89
2022/03/08 03:07:27;;;;;;;;;;;2.60;49.40;;;;;;5058651;28;19913;-90
2022/03/08 03:09:52;;;;;;;;;;;2.50;49.40;;;;;;5076321;28;19916;-89
2022/03/08 03:12:18;;;;;;;;;;;2.50;49.30;;;;;;5059033;28;19916;-87
2022/03/08 03:14:43;;;;;;;;;;;2.40;49.30;;;;;;5059166;28;19924;-89
2022/03/08 03:17:09;;;;;;;;;;;2.40;49.40;;;;;;5078328;28;20018;-88
2022/03/08 03:19:35;;;;;;;;;;;2.30;49.40;;;;;;5060142;28;19924;-89
2022/03/08 03:22:01;;;;;;;;;;;2.30;49.30;;;;;;5059657;28;20360;-90
2022/03/08 03:24:26;;;;;;;;;;;2.30;49.30;;;;;;5057673;28;19912;-90
2022/03/08 03:26:52;;;;;;;;;;;2.30;49.30;;;;;;5075173;28;19962;-88
2022/03/08 03:29:17;;;;;;;;;;;2.30;49.50;;;;;;5057915;28;19981;-88
2022/03/08 03:31:43;;;;;;;;;;;2.30;49.70;;;;;;5075886;28;19909;-89
2022/03/08 03:34:08;;;;;;;;;;;2.30;49.70;;;;;;5077190;28;19912;-89
2022/03/08 03:36:34;;;;;;;;;;;2.30;49.80;;;;;;5077104;28;19924;-88
2022/03/08 03:38:59;;;;;;;;;;;2.30;49.70;;;;;;5057983;28;19959;-89
2022/03/08 03:41:25;;;;;;;;;;;2.30;49.70;;;;;;5057736;28;21282;-89
2022/03/08 03:43:50;;;;;;;;;;;2.30;49.70;;;;;;5058522;28;20433;-87
2022/03/08 03:46:16;;;;;;;;;;;2.30;49.70;;;;;;5075771;28;19915;-89
2022/03/08 03:48:42;;;;;;;;;;;2.30;49.90;;;;;;5057178;28;20024;-88
2022/03/08 03:51:07;;;;;;;;;;;2.30;49.90;;;;;;5042316;28;20404;-89
2022/03/08 03:53:32;;;;;;;;;;;2.30;49.90;;;;;;5037801;28;19924;-88
2022/03/08 03:55:58;;;;;;;;;;;2.30;50.00;;;;;;5055903;28;20482;-88
2022/03/08 03:58:23;;;;;;;;;;;2.30;50.00;;;;;;5056067;28;19921;-89
2022/03/08 04:00:49;;;;;;;;;;;2.30;50.00;;;;;;5037925;28;19921;-88
2022/03/08 04:03:15;;;;;;;;;;;2.30;50.00;;;;;;5054464;28;19947;-88
2022/03/08 04:05:41;;;;;;;;;;;2.30;50.00;;;;;;5037020;28;19908;-89
2022/03/08 04:08:06;;;;;;;;;;;2.30;50.10;;;;;;5036290;28;19931;-89
2022/03/08 04:10:32;;;;;;;;;;;2.30;50.10;;;;;;5053931;28;19999;-89
2022/03/08 04:12:57;;;;;;;;;;;2.30;50.10;;;;;;5023275;28;20317;-89
2022/03/08 04:15:23;;;;;;;;;;;2.20;50.10;;;;;;5048797;28;19917;-89
2022/03/08 04:17:48;;;;;;;;;;;2.30;50.10;;;;;;5036587;28;19921;-89
2022/03/08 04:20:14;;;;;;;;;;;2.20;50.20;;;;;;5035596;28;19917;-89
2022/03/08 04:22:39;;;;;;;;;;;2.20;50.20;;;;;;5035852;28;19948;-89
2022/03/08 04:25:05;;;;;;;;;;;2.20;50.10;;;;;;5036187;28;19917;-88
2022/03/08 04:27:31;;;;;;;;;;;2.20;50.00;;;;;;5054758;28;20007;-89
2022/03/08 04:29:56;;;;;;;;;;;2.20;49.90;;;;;;5054762;28;19928;-89
2022/03/08 04:32:22;;;;;;;;;;;2.10;49.90;;;;;;5039316;28;19916;-88
2022/03/08 04:34:47;;;;;;;;;;;2.10;49.80;;;;;;5036499;28;19960;-89
2022/03/08 04:37:13;;;;;;;;;;;2.10;49.90;;;;;;5036055;28;19932;-89
2022/03/08 04:39:38;;;;;;;;;;;2.10;50.30;;;;;;5053968;28;19925;-89
2022/03/08 04:42:04;;;;;;;;;;;2.00;50.40;;;;;;5036065;28;19963;-89
2022/03/08 04:44:29;;;;;;;;;;;2.00;50.40;;;;;;5036213;28;20015;-89
2022/03/08 04:46:55;;;;;;;;;;;2.00;50.40;;;;;;5029885;28;19952;-88
2022/03/08 04:49:20;;;;;;;;;;;2.10;50.30;;;;;;5035423;28;19925;-89
2022/03/08 04:51:46;;;;;;;;;;;2.00;50.20;;;;;;5056403;28;19956;-89
2022/03/08 04:54:11;;;;;;;;;;;2.10;50.10;;;;;;5049023;28;20320;-89
2022/03/08 04:56:37;;;;;;;;;;;2.00;50.10;;;;;;5055358;28;19940;-87
2022/03/08 04:59:03;;;;;;;;;;;2.00;50.00;;;;;;5072218;28;19917;-89
2022/03/08 05:01:28;;;;;;;;;;;1.90;50.00;;;;;;5050697;28;19916;-88
2022/03/08 05:03:54;;;;;;;;;;;1.90;50.00;;;;;;5055478;28;19919;-88
2022/03/08 05:06:19;;;;;;;;;;;1.80;49.90;;;;;;5055459;28;19921;-89
2022/03/08 05:08:45;;;;;;;;;;;1.80;49.90;;;;;;5064442;28;19916;-88
2022/03/08 05:11:10;;;;;;;;;;;1.80;49.80;;;;;;5054895;28;20410;-89
2022/03/08 05:13:37;;;;;;;;;;;1.80;49.80;;;;;;5055141;28;19959;-89
2022/03/08 05:16:03;;;;;;;;;;;1.70;49.80;;;;;;5053793;28;19961;-90
2022/03/08 05:18:29;;;;;;;;;;;1.70;49.80;;;;;;5037896;28;19916;-90
2022/03/08 05:20:54;;;;;;;;;;;1.70;49.80;;;;;;5055705;28;19967;-88
2022/03/08 05:23:23;;;;;;;;;;;1.60;49.90;;;;;;5058065;28;19919;-90
2022/03/08 05:25:48;;;;;;;;;;;1.60;50.60;;;;;;5073686;28;19921;-88
2022/03/08 05:28:14;;;;;;;;;;;1.60;50.60;;;;;;5075520;28;20015;-88
2022/03/08 05:30:40;;;;;;;;;;;1.60;50.60;;;;;;5058105;28;19921;-89
2022/03/08 05:33:06;;;;;;;;;;;1.60;50.60;;;;;;5074093;28;19913;-88
2022/03/08 05:35:32;;;;;;;;;;;1.60;50.50;;;;;;5057802;28;20007;-89
2022/03/08 05:37:57;;;;;;;;;;;1.60;50.60;;;;;;5057507;28;20008;-88
2022/03/08 05:40:23;;;;;;;;;;;1.60;50.70;;;;;;5053865;28;19931;-89
2022/03/08 05:42:49;;;;;;;;;;;1.50;50.50;;;;;;5052756;28;20380;-88
2022/03/08 05:45:15;;;;;;;;;;;1.50;50.40;;;;;;5053085;28;19916;-88
2022/03/08 05:47:41;;;;;;;;;;;1.50;50.40;;;;;;5053407;28;19966;-88
2022/03/08 05:50:07;;;;;;;;;;;1.50;50.30;;;;;;5037803;28;19921;-90
2022/03/08 05:52:33;;;;;;;;;;;1.50;50.30;;;;;;5074337;28;19924;-88
2022/03/08 05:54:58;;;;;;;;;;;1.50;50.30;;;;;;5055029;28;19966;-87
2022/03/08 05:57:24;;;;;;;;;;;1.50;50.30;;;;;;5039015;28;19921;-89
2022/03/08 05:59:49;;;;;;;;;;;1.50;50.40;;;;;;5073968;28;19917;-89
2022/03/08 06:02:18;;;;;;;;;;;1.60;50.40;;;;;;5037330;28;19993;-88
2022/03/08 06:04:44;;;;;;;;;;;1.60;50.60;;;;;;5045264;28;19932;-89
2022/03/08 06:07:10;;;;;;;;;;;1.60;51.00;;;;;;5052674;28;20046;-89
2022/03/08 06:09:35;;;;;;;;;;;1.80;51.40;;;;;;5046931;28;19916;-88
2022/03/08 06:12:01;;;;;;;;;;;1.90;51.90;;;;;;5073377;28;19923;-91
2022/03/08 06:14:27;;;;;;;;;;;2.10;52.30;;;;;;5073315;28;19931;-89
2022/03/08 06:16:52;;;;;;;;;;;2.40;52.80;;;;;;5054841;28;19923;-88
2022/03/08 06:19:18;;;;;;;;;;;2.70;53.20;;;;;;5054851;28;20265;-88
2022/03/08 06:21:43;;;;;;;;;;;3.00;53.60;;;;;;5043004;28;19917;-87
2022/03/08 06:24:11;;;;;;;;;;;3.40;54.00;;;;;;5034479;28;19925;-88
2022/03/08 06:26:37;;;;;;;;;;;3.70;54.40;;;;;;5051277;28;20317;-87
2022/03/08 06:29:02;;;;;;;;;;;4.10;54.80;;;;;;5053601;28;20400;-88
2022/03/08 06:31:28;;;;;;;;;;;4.50;55.20;;;;;;5061079;28;19966;-88
2022/03/08 06:33:53;;;;;;;;;;;4.90;55.40;;;;;;5054945;28;20011;-88
2022/03/08 06:36:19;;;;;;;;;;;5.40;55.40;;;;;;5056403;28;20303;-88
2022/03/08 06:38:44;;;;;;;;;;;5.80;55.30;;;;;;5058926;28;20342;-88
2022/03/08 06:41:10;;;;;;;;;;;6.20;55.30;;;;;;5076414;28;19920;-88
2022/03/08 06:43:35;;;;;;;;;;;6.70;55.30;;;;;;5058628;28;19917;-89
2022/03/08 06:46:01;;;;;;;;;;;7.10;55.30;;;;;;5077253;28;19923;-88
2022/03/08 06:48:26;;;;;;;;;;;7.50;56.20;;;;;;5058426;28;19924;-88
2022/03/08 06:50:52;;;;;;;;;;;8.00;56.80;;;;;;5057795;28;20470;-88
2022/03/08 06:53:17;;;;;;;;;;;8.40;57.20;;;;;;5076464;28;20265;-89
2022/03/08 06:55:43;;;;;;;;;;;8.90;57.50;;;;;;5076233;28;20011;-87
2022/03/08 06:58:08;;;;;;;;;;;9.40;57.90;;;;;;5064995;28;20279;-88
2022/03/08 07:00:33;;;;;;;;;;;9.90;58.30;;;;;;5037722;28;19924;-86
2022/03/08 07:02:59;;;;;;;;;;;10.30;58.50;;;;;;5055396;28;19916;-88
2022/03/08 07:05:25;;;;;;;;;;;10.80;58.60;;;;;;5056087;28;19962;-88
2022/03/08 07:07:50;;;;;;;;;;;11.30;58.70;;;;;;5055901;28;19931;-88
2022/03/08 07:10:16;;;;;;;;;;;11.80;59.00;;;;;;5037250;28;19913;-87
2022/03/08 07:12:41;;;;;;;;;;;12.30;59.40;;;;;;5055579;28;19939;-88
2022/03/08 07:15:07;;;;;;;;;;;12.70;59.60;;;;;;5051482;28;20028;-88
2022/03/08 07:17:32;;;;;;;;;;;13.20;59.10;;;;;;5075545;28;19908;-88
2022/03/08 07:19:58;;;;;;;;;;;13.70;58.70;;;;;;5058396;28;19913;-89
2022/03/08 07:22:23;;;;;;;;;;;14.20;58.50;;;;;;5057354;28;19908;-86
2022/03/08 07:24:49;;;;;;;;;;;14.50;58.40;;;;;;5056686;28;20027;-88
2022/03/08 07:27:14;;;;;;;;;;;15.00;58.80;;;;;;5075556;28;19912;-88
2022/03/08 07:29:40;;;;;;;;;;;15.40;58.30;;;;;;5057605;28;19912;-88
2022/03/08 07:32:06;;;;;;;;;;;15.80;58.50;;;;;;5057034;28;19912;-89
2022/03/08 07:34:31;;;;;;;;;;;16.20;58.20;;;;;;5056722;28;20314;-87
2022/03/08 07:36:57;;;;;;;;;;;16.50;58.30;;;;;;5056325;28;19912;-87
2022/03/08 07:39:22;;;;;;;;;;;16.80;58.00;;;;;;5075391;28;19984;-88
2022/03/08 07:41:48;;;;;;;;;;;17.30;58.00;;;;;;5074872;28;19912;-88
2022/03/08 07:44:13;;;;;;;;;;;17.60;56.70;;;;;;5055995;28;20459;-88
2022/03/08 07:46:39;;;;;;;;;;;17.90;56.30;;;;;;5056270;28;20292;-88
2022/03/08 07:49:05;;;;;;;;;;;18.30;56.40;;;;;;5056013;28;19977;-90
2022/03/08 07:51:31;;;;;;;;;;;18.70;56.80;;;;;;5056311;28;19994;-87
2022/03/08 07:53:59;;;;;;;;;;;19.00;56.70;;;;;;5055498;28;19935;-88
2022/03/08 07:56:24;;;;;;;;;;;19.30;56.60;;;;;;5056187;28;20066;-88
2022/03/08 07:58:50;;;;;;;;;;;19.60;56.30;;;;;;5056015;28;20419;-87
2022/03/08 08:01:16;;;;;;;;;;;19.80;56.10;;;;;;5056248;28;20025;-88
2022/03/08 08:03:41;;;;;;;;;;;20.20;56.50;;;;;;5055535;28;20382;-89
2022/03/08 08:06:07;;;;;;;;;;;20.40;56.20;;;;;;5074357;28;19970;-88
2022/03/08 08:08:32;;;;;;;;;;;20.70;55.70;;;;;;5073792;28;20038;-87
2022/03/08 08:10:58;;;;;;;;;;;21.00;56.20;;;;;;5056202;28;19923;-88
2022/03/08 08:13:23;;;;;;;;;;;21.30;55.80;;;;;;5056652;28;19916;-88
2022/03/08 08:15:49;;;;;;;;;;;21.60;55.50;;;;;;5055942;28;19913;-88
2022/03/08 08:18:16;;;;;;;;;;;21.80;55.20;;;;;;5073866;28;19916;-88
2022/03/08 08:20:41;;;;;;;;;;;22.00;54.70;;;;;;5055930;28;20011;-88
2022/03/08 08:23:08;;;;;;;;;;;22.10;53.20;;;;;;5055896;28;23061;-87
2022/03/08 08:25:34;;;;;;;;;;;22.10;51.10;;;;;;5073746;28;19955;-88
2022/03/08 08:27:59;;;;;;;;;;;22.10;51.30;;;;;;5073254;28;19931;-88
2022/03/08 08:30:26;;;;;;;;;;;22.10;47.90;;;;;;5055661;28;19917;-89
2022/03/08 08:32:52;;;;;;;;;;;22.00;48.20;;;;;;5055205;28;19940;-88
2022/03/08 08:35:18;;;;;;;;;;;22.00;49.20;;;;;;5055626;28;20025;-88
2022/03/08 08:37:44;;;;;;;;;;;22.10;50.40;;;;;;5073981;28;19976;-87
2022/03/08 08:40:11;;;;;;;;;;;22.30;50.00;;;;;;5073625;28;19971;-88
2022/03/08 08:42:37;;;;;;;;;;;22.40;49.10;;;;;;5073621;28;19917;-88
2022/03/08 08:45:03;;;;;;;;;;;22.40;48.10;;;;;;5049798;28;19973;-89
2022/03/08 08:47:28;;;;;;;;;;;22.40;48.60;;;;;;5043794;28;19916;-88
2022/03/08 08:49:54;;;;;;;;;;;22.50;49.90;;;;;;5071664;28;19924;-88
2022/03/08 08:52:19;;;;;;;;;;;22.70;50.30;;;;;;5068676;28;19921;-90
2022/03/08 08:54:47;;;;;;;;;;;22.80;46.70;;;;;;5055082;28;20061;-87
2022/03/08 08:57:13;;;;;;;;;;;22.80;46.30;;;;;;5072977;28;20327;-89
2022/03/08 08:59:38;;;;;;;;;;;22.90;46.60;;;;;;5072464;28;19920;-88
2022/03/08 09:02:04;;;;;;;;;;;23.00;45.20;;;;;;5055526;28;19945;-88
2022/03/08 09:04:29;;;;;;;;;;;23.00;40.50;;;;;;5072453;28;19977;-88
2022/03/08 09:06:55;;;;;;;;;;;22.90;41.30;;;;;;5073127;28;19912;-89
2022/03/08 09:09:20;;;;;;;;;;;22.90;40.30;;;;;;5055197;28;19924;-88
2022/03/08 09:11:46;;;;;;;;;;;22.80;37.20;;;;;;5055687;28;19912;-88
2022/03/08 09:14:11;;;;;;;;;;;22.70;37.10;;;;;;5072990;28;20295;-89
2022/03/08 09:16:37;;;;;;;;;;;22.60;37.90;;;;;;5072980;28;19916;-88
2022/03/08 09:19:03;;;;;;;;;;;22.70;38.10;;;;;;5073190;28;19920;-88
2022/03/08 09:21:28;;;;;;;;;;;22.80;35.10;;;;;;5054555;28;19924;-88
2022/03/08 09:23:54;;;;;;;;;;;22.70;33.20;;;;;;5038346;28;19921;-88
2022/03/08 09:26:19;;;;;;;;;;;22.60;32.70;;;;;;5072454;28;20230;-89
2022/03/08 09:28:45;;;;;;;;;;;22.50;32.60;;;;;;5073507;28;19921;-87
2022/03/08 09:31:13;;;;;;;;;;;22.40;30.30;;;;;;5073336;28;19920;-88
2022/03/08 09:33:40;;;;;;;;;;;22.30;30.80;;;;;;5054346;28;19920;-88
2022/03/08 09:36:06;;;;;;;;;;;22.30;29.90;;;;;;5072919;28;20005;-88
2022/03/08 09:38:31;;;;;;;;;;;22.30;30.50;;;;;;5054148;28;19999;-89
2022/03/08 09:40:57;;;;;;;;;;;22.40;29.40;;;;;;5055488;28;19913;-88
2022/03/08 09:43:22;;;;;;;;;;;22.30;27.90;;;;;;5055047;28;19908;-89
2022/03/08 09:45:48;;;;;;;;;;;22.10;27.00;;;;;;5073106;28;19913;-88
2022/03/08 09:48:13;;;;;;;;;;;22.00;27.20;;;;;;5054726;28;19958;-88
2022/03/08 09:50:39;;;;;;;;;;;22.10;27.00;;;;;;5054579;28;19928;-88
2022/03/08 09:53:04;;;;;;;;;;;22.20;26.40;;;;;;5054276;28;19908;-88
2022/03/08 09:55:30;;;;;;;;;;;22.10;25.90;;;;;;5072705;28;19923;-88
2022/03/08 09:57:55;;;;;;;;;;;22.00;26.20;;;;;;5072457;28;19915;-88
2022/03/08 10:00:23;;;;;;;;;;;22.00;25.30;;;;;;5072837;28;20370;-89
2022/03/08 10:02:49;;;;;;;;;;;22.00;25.70;;;;;;5072431;28;19935;-90
2022/03/08 10:05:16;;;;;;;;;;;22.00;25.50;;;;;;5054439;28;20015;-89
2022/03/08 10:08:00;;;;;;;;;;;22.10;25.70;;;;;;5072217;28;19916;-89
2022/03/08 10:10:26;;;;;;;;;;;22.30;25.80;;;;;;5075016;28;20326;-88
2022/03/08 10:12:58;;;;;;;;;;;22.40;25.40;;;;;;5076281;28;19916;-88
2022/03/08 10:15:24;;;;;;;;;;;22.70;24.90;;;;;;5076026;28;19952;-89
2022/03/08 10:17:49;;;;;;;;;;;22.80;24.30;;;;;;5057935;28;19923;-88
2022/03/08 10:20:26;;;;;;;;;;;22.80;23.90;;;;;;5075988;28;20486;-90
2022/03/08 10:22:51;;;;;;;;;;;22.80;24.10;;;;;;5057579;28;20433;-88
2022/03/08 10:25:18;;;;;;;;;;;22.90;23.40;;;;;;5075162;28;19920;-88
2022/03/08 10:27:56;;;;;;;;;;;22.90;22.90;;;;;;5057682;28;20037;-88
2022/03/08 10:30:27;;;;;;;;;;;22.90;23.00;;;;;;5058171;28;20387;-88
2022/03/08 10:32:56;;;;;;;;;;;22.80;22.70;;;;;;5076419;28;19936;-89
2022/03/08 10:35:22;;;;;;;;;;;22.60;22.30;;;;;;5057626;28;19973;-88
2022/03/08 10:37:48;;;;;;;;;;;22.60;22.70;;;;;;5057252;28;20046;-88
2022/03/08 10:40:22;;;;;;;;;;;22.50;22.30;;;;;;5057063;28;20019;-88
2022/03/08 10:42:56;;;;;;;;;;;22.50;22.40;;;;;;5075933;28;20430;-89
2022/03/08 10:45:25;;;;;;;;;;;22.60;22.80;;;;;;5076092;28;20327;-88
2022/03/08 10:47:51;;;;;;;;;;;22.60;22.50;;;;;;5075610;28;19916;-88
2022/03/08 10:50:18;;;;;;;;;;;22.70;23.00;;;;;;5057664;28;20387;-87
2022/03/08 10:52:44;;;;;;;;;;;22.80;22.40;;;;;;5040008;28;19920;-88
2022/03/08 10:55:14;;;;;;;;;;;22.80;22.00;;;;;;5075998;28;20368;-88
2022/03/08 10:57:41;;;;;;;;;;;22.70;21.50;;;;;;5075382;28;19924;-89
2022/03/08 11:00:11;;;;;;;;;;;22.50;21.60;;;;;;5076765;28;20011;-88
2022/03/08 11:02:53;;;;;;;;;;;22.50;21.90;;;;;;5057249;28;20375;-89
2022/03/08 11:05:20;;;;;;;;;;;22.40;21.60;;;;;;5057379;28;19924;-88
2022/03/08 11:07:45;;;;;;;;;;;22.30;21.90;;;;;;5057050;28;20361;-88
2022/03/08 11:10:11;;;;;;;;;;;22.30;21.70;;;;;;5056731;28;19929;-88
2022/03/08 11:12:37;;;;;;;;;;;22.30;21.80;;;;;;5056448;28;19959;-88
2022/03/08 11:15:04;;;;;;;;;;;22.30;21.50;;;;;;5056266;28;19923;-89
2022/03/08 11:17:32;;;;;;;;;;;22.10;21.50;;;;;;5074768;28;20273;-88
2022/03/08 11:19:58;;;;;;;;;;;22.00;21.90;;;;;;5075742;28;20396;-88
2022/03/08 11:22:23;;;;;;;;;;;22.00;21.30;;;;;;5074176;28;19908;-89
2022/03/08 11:24:51;;;;;;;;;;;21.90;21.20;;;;;;5056357;28;19925;-88
2022/03/08 11:27:17;;;;;;;;;;;21.80;21.50;;;;;;5075149;28;20291;-89
2022/03/08 11:29:43;;;;;;;;;;;21.80;21.40;;;;;;5058037;28;19912;-88
2022/03/08 11:32:14;;;;;;;;;;;21.50;21.40;;;;;;5074718;28;19921;-89
2022/03/08 11:34:54;;;;;;;;;;;21.50;21.50;;;;;;5075491;28;19912;-88
2022/03/08 11:37:21;;;;;;;;;;;21.60;21.60;;;;;;5057251;28;20363;-87
2022/03/08 11:40:04;;;;;;;;;;;21.60;21.20;;;;;;5075022;28;19962;-89
2022/03/08 11:42:31;;;;;;;;;;;21.40;20.80;;;;;;5056261;28;20421;-89
2022/03/08 11:45:06;;;;;;;;;;;21.30;20.50;;;;;;5056676;28;19916;-88
2022/03/08 11:47:38;;;;;;;;;;;21.40;20.80;;;;;;5056811;28;19955;-88
2022/03/08 11:50:04;;;;;;;;;;;21.60;20.80;;;;;;5047560;28;19921;-87
2022/03/08 11:52:31;;;;;;;;;;;21.70;20.30;;;;;;5017849;28;20139;-88
2022/03/08 11:55:03;;;;;;;;;;;21.70;20.00;;;;;;5016833;28;20388;-88
2022/03/08 11:57:47;;;;;;;;;;;21.70;19.90;;;;;;5017419;28;19924;-88
2022/03/08 12:00:17;;;;;;;;;;;21.70;20.10;;;;;;5034474;28;19910;-88
2022/03/08 12:02:46;;;;;;;;;;;21.80;20.10;;;;;;5016536;28;20032;-91
2022/03/08 12:05:30;;;;;;;;;;;21.80;20.10;;;;;;5017070;28;20036;-88
2022/03/08 12:07:56;;;;;;;;;;;21.80;19.80;;;;;;5016518;28;19932;-90
2022/03/08 12:10:25;;;;;;;;;;;21.80;19.70;;;;;;5016765;28;19909;-88
2022/03/08 12:12:55;;;;;;;;;;;21.80;19.50;;;;;;5034018;28;19913;-89
2022/03/08 12:15:21;;;;;;;;;;;21.90;19.70;;;;;;5031293;28;19913;-90
2022/03/08 12:18:05;;;;;;;;;;;22.10;19.30;;;;;;5036952;28;19936;-89
2022/03/08 12:20:30;;;;;;;;;;;21.90;18.70;;;;;;5054474;28;19916;-89
2022/03/08 12:23:11;;;;;;;;;;;21.80;18.80;;;;;;5054855;28;20273;-88
2022/03/08 12:25:37;;;;;;;;;;;21.80;18.50;;;;;;5054919;28;19960;-90
2022/03/08 12:28:02;;;;;;;;;;;21.60;18.30;;;;;;5036595;28;20378;-90
2022/03/08 12:30:38;;;;;;;;;;;21.50;18.50;;;;;;5053403;28;19996;-88
2022/03/08 12:33:04;;;;;;;;;;;21.40;18.70;;;;;;5015547;28;19920;-88
2022/03/08 12:35:29;;;;;;;;;;;21.30;18.50;;;;;;5033159;28;19913;-88
2022/03/08 12:37:57;;;;;;;;;;;21.30;18.70;;;;;;5016630;28;19916;-89
2022/03/08 12:40:27;;;;;;;;;;;21.20;18.80;;;;;;5015810;28;19913;-89
2022/03/08 12:43:10;;;;;;;;;;;21.20;18.70;;;;;;5016373;28;19909;-87
2022/03/08 12:45:37;;;;;;;;;;;21.10;18.70;;;;;;5034284;28;20011;-89
2022/03/08 12:48:03;;;;;;;;;;;21.00;18.70;;;;;;5015197;28;19970;-88
2022/03/08 12:50:30;;;;;;;;;;;20.80;18.60;;;;;;5022156;28;20003;-88
2022/03/08 12:52:57;;;;;;;;;;;20.80;18.90;;;;;;5016639;28;19917;-89
2022/03/08 12:55:27;;;;;;;;;;;20.80;18.90;;;;;;5034043;28;19909;-88
2022/03/08 12:57:57;;;;;;;;;;;20.80;18.60;;;;;;5016092;28;19913;-86
2022/03/08 13:00:30;;;;;;;;;;;20.70;18.40;;;;;;5016208;28;19971;-88
2022/03/08 13:02:56;;;;;;;;;;;20.50;18.20;;;;;;5033884;28;19913;-88
2022/03/08 13:05:26;;;;;;;;;;;20.30;18.10;;;;;;5034350;28;19921;-89
2022/03/08 13:07:52;;;;;;;;;;;20.30;18.40;;;;;;5015287;28;19974;-88
2022/03/08 13:10:18;;;;;;;;;;;20.20;18.60;;;;;;5015195;28;19916;-88
2022/03/08 13:12:48;;;;;;;;;;;20.10;18.70;;;;;;5015810;28;19917;-88
2022/03/08 13:15:15;;;;;;;;;;;20.10;18.90;;;;;;5047636;28;19955;-87
2022/03/08 13:17:45;;;;;;;;;;;19.90;18.90;;;;;;5035435;28;20004;-87
2022/03/08 13:20:23;;;;;;;;;;;19.40;18.90;;;;;;5055696;28;19920;-88
2022/03/08 13:22:48;;;;;;;;;;;18.80;19.40;;;;;;5036110;28;19921;-88
2022/03/08 13:25:14;;;;;;;;;;;18.20;19.90;;;;;;5034936;28;19920;-88
2022/03/08 13:27:53;;;;;;;;;;;17.80;20.30;;;;;;5053593;28;19928;-89
2022/03/08 13:30:24;;;;;;;;;;;17.40;20.90;;;;;;5053425;28;19955;-90
2022/03/08 13:33:08;;;;;;;;;;;16.90;20.80;;;;;;5035299;28;20387;-89
2022/03/08 13:35:34;;;;;;;;;;;16.70;21.50;;;;;;5035200;28;19917;-89
2022/03/08 13:38:00;;;;;;;;;;;16.50;22.20;;;;;;5052610;28;20279;-88
2022/03/08 13:40:27;;;;;;;;;;;16.40;22.50;;;;;;5052253;28;19924;-88
2022/03/08 13:42:52;;;;;;;;;;;16.20;22.50;;;;;;5052708;28;19917;-88
2022/03/08 13:45:18;;;;;;;;;;;16.10;22.30;;;;;;5037080;28;19938;-90
2022/03/08 13:47:43;;;;;;;;;;;16.00;22.30;;;;;;5038431;28;19921;-89
2022/03/08 13:50:09;;;;;;;;;;;15.80;22.30;;;;;;5064253;28;19916;-88
2022/03/08 13:52:36;;;;;;;;;;;15.80;22.70;;;;;;5058835;28;19956;-89
2022/03/08 13:55:03;;;;;;;;;;;15.80;23.00;;;;;;5076130;28;19913;-87
2022/03/08 13:57:29;;;;;;;;;;;15.80;23.00;;;;;;5076288;28;19913;-87
2022/03/08 13:59:54;;;;;;;;;;;15.80;23.20;;;;;;5075722;28;19975;-85
2022/03/08 14:02:21;;;;;;;;;;;15.80;23.50;;;;;;5075649;28;19916;-85
2022/03/08 14:04:46;;;;;;;;;;;15.70;23.10;;;;;;5057744;28;20003;-85
2022/03/08 14:07:13;;;;;;;;;;;15.70;22.90;;;;;;5076389;28;19948;-86
2022/03/08 14:09:39;;;;;;;;;;;15.60;22.80;;;;;;5079581;28;19947;-88
2022/03/08 14:12:05;;;;;;;;;;;15.50;22.70;;;;;;5052557;28;19940;-89
2022/03/08 14:14:31;;;;;;;;;;;15.60;23.00;;;;;;5060765;28;19927;-88
2022/03/08 14:16:57;;;;;;;;;;;15.60;23.20;;;;;;5059513;28;19909;-89
2022/03/08 14:19:38;;;;;;;;;;;15.50;23.00;;;;;;5078180;28;19920;-87